Latest Weather Observations for Newdegate

IDW60801

Issued at 9:03 pm WST Saturday 19 August 2017 (issued every 30 minutes, with the page automatically refreshed every 10 minutes)

About weather observations | Map of weather stations | Latest weather observations for WA | Other Formats
Station Details ID: 010692 Name: NEWDEGATE RESEARCH STATION Lat: -33.11 Lon: 118.84 Height: 320.0 m
Data from the previous 72 hours. | See also: Recent months at Newdegate
Date/Time
WST
Temp
°C
App
Temp
°C
Dew
Point
°C
Rel
Hum
%
Delta-T
°C
Wind Press
QNH
hPa
Press
MSL
hPa
Rain since
9am
mm
Dir  Spd
km/h
Gust
km/h
Spd
kts
Gust
kts
19/09:00pm 8.9 5.1 5.6 80 1.5 W 15 22 8 12 1016.0 1016.1 0.0
19/08:30pm 8.6 5.1 5.4 80 1.5 W 13 17 7 9 1015.9 1016.0 0.0
19/08:00pm 8.3 5.0 4.5 77 1.7 W 11 15 6 8 1015.9 1016.0 0.0
19/07:30pm 9.1 5.8 4.7 74 2.0 W 11 17 6 9 1015.3 1015.5 0.0
19/07:00pm 9.8 6.2 4.8 71 2.3 W 13 19 7 10 1015.0 1015.2 0.0
19/06:30pm 10.4 6.9 5.4 71 2.3 W 13 19 7 10 1014.7 1014.9 0.0
19/06:00pm 10.1 7.3 5.1 71 2.3 W 9 13 5 7 1014.3 1014.5 0.0
19/05:30pm 11.6 8.4 5.3 65 3.0 W 11 17 6 9 1014.1 1014.3 0.0
19/05:00pm 12.9 8.9 5.1 59 3.7 W 15 22 8 12 1013.8 1014.0 0.0
19/04:30pm 13.5 9.3 5.7 59 3.7 W 17 26 9 14 1013.7 1013.9 0.0
19/04:00pm 13.6 9.5 6.2 61 3.6 W 17 24 9 13 1013.6 1013.8 0.0
19/03:30pm 13.4 8.9 6.3 62 3.4 W 19 30 10 16 1013.6 1013.8 0.0
19/03:00pm 12.4 8.5 7.1 70 2.6 WSW 17 26 9 14 1013.5 1013.7 0.0
19/02:30pm 12.7 8.1 5.8 63 3.3 W 19 28 10 15 1013.3 1013.4 0.0
19/02:00pm 13.4 8.3 5.8 60 3.7 W 22 33 12 18 1013.2 1013.3 0.0
19/01:30pm 12.6 7.5 5.8 63 3.2 W 22 30 12 16 1013.3 1013.4 0.0
19/01:00pm 12.3 7.1 5.5 63 3.2 W 22 30 12 16 1013.2 1013.3 0.0
19/12:30pm 13.7 9.5 7.5 66 3.1 W 19 28 10 15 1013.3 1013.4 0.0
19/12:00pm 12.5 8.2 6.8 68 2.8 WSW 19 32 10 17 1013.6 1013.8 0.0
19/11:30am 12.8 9.6 8.5 75 2.2 W 15 22 8 12 1013.8 1014.0 0.0
19/11:00am 11.3 9.0 9.0 86 1.2 WSW 11 15 6 8 1014.2 1014.4 0.0
19/10:30am 10.2 7.8 8.6 90 0.8 WSW 11 17 6 9 1014.4 1014.6 0.0
19/10:00am 9.6 6.4 8.4 92 0.6 SW 15 24 8 13 1014.4 1014.6 0.0
19/09:30am 9.3 6.0 8.1 92 0.6 SW 15 22 8 12 1014.5 1014.7 0.0
19/09:00am 8.8 5.0 7.7 93 0.5 SW 17 26 9 14 1014.7 1014.9 1.2
19/08:30am 8.1 3.8 6.9 92 0.6 SW 19 26 10 14 1014.5 1014.7 1.2
19/08:00am 7.4 4.1 6.2 92 0.6 SW 13 19 7 10 1014.3 1014.5 1.2
19/07:30am 6.2 1.4 4.8 91 0.6 WSW 19 30 10 16 1013.8 1014.0 1.2
19/07:00am 6.2 3.7 4.7 90 0.7 W 7 17 4 9 1013.8 1014.0 1.2
19/06:30am 5.8 3.2 4.1 89 0.7 WSW 7 13 4 7 1013.3 1013.4 1.2
19/06:00am 6.3 3.1 4.9 91 0.6 WNW 11 20 6 11 1012.7 1012.8 1.2
19/05:30am 4.7 2.8 3.0 89 0.7 N 2 4 1 2 1012.2 1012.4 1.2
19/05:00am 4.7 2.8 2.9 88 0.8 N 2 4 1 2 1012.5 1012.6 1.0
19/04:30am 5.7 4.4 4.0 89 0.7 CALM 0 0 0 0 1012.7 1012.8 1.0
19/04:00am 5.7 4.4 3.9 88 0.8 CALM 0 0 0 0 1012.6 1012.7 1.0
19/03:30am 7.2 4.8 5.3 88 0.9 SW 7 9 4 5 1012.8 1012.9 1.0
19/03:00am 7.5 4.8 5.8 89 0.8 WSW 9 11 5 6 1012.9 1013.0 1.0
19/02:30am 7.5 5.5 6.1 91 0.6 WNW 6 11 3 6 1013.1 1013.2 1.0
19/02:00am 6.9 5.8 5.2 89 0.8 CALM 0 0 0 0 1013.1 1013.2 1.0
19/01:30am 7.5 6.5 5.8 89 0.8 CALM 0 0 0 0 1013.8 1014.0 1.0
19/01:00am 7.9 6.6 6.0 88 0.9 NNE 2 6 1 3 1013.7 1013.9 1.0
19/12:30am 8.2 7.0 6.3 88 0.9 NNE 2 6 1 3 1014.1 1014.3 0.8
19/12:00am 8.6 7.4 6.6 87 0.9 SW 2 4 1 2 1014.9 1015.1 0.8
 
Date/Time
WST
Temp
°C
App
Temp
°C
Dew
Point
°C
Rel
Hum
%
Delta-T
°C
Wind Press
QNH
hPa
Press
MSL
hPa
Rain since
9am
mm
Dir  Spd
km/h
Gust
km/h
Spd
kts
Gust
kts
18/11:30pm 9.3 7.9 7.1 86 1.1 SSW 4 6 2 3 1014.9 1015.1 0.8
18/11:00pm 9.4 8.3 6.8 84 1.2 S 2 6 1 3 1015.8 1015.9 0.6
18/10:30pm 8.9 6.2 5.8 81 1.4 ENE 9 11 5 6 1015.4 1015.6 0.2
18/10:00pm 9.3 8.3 5.5 77 1.8 CALM 0 2 0 1 1016.0 1016.1 0.2
18/09:30pm 10.7 8.4 5.7 71 2.3 WNW 7 11 4 6 1015.8 1015.9 0.2
18/09:00pm 11.3 8.1 6.8 74 2.2 NE 13 22 7 12 1016.0 1016.1 0.2
18/08:30pm 9.8 7.9 6.5 80 1.6 NNE 6 9 3 5 1015.9 1016.0 0.2
18/08:00pm 7.9 6.3 4.5 79 1.5 WSW 2 6 1 3 1014.9 1015.1 0.2
18/07:30pm 9.4 7.3 5.6 77 1.8 S 6 7 3 4 1014.9 1015.1 0.2
18/07:00pm 9.3 8.2 5.1 75 1.9 CALM 0 0 0 0 1015.1 1015.3 0.2
18/06:30pm 10.9 9.1 5.4 69 2.6 S 4 4 2 2 1014.9 1015.1 0.2
18/06:00pm 12.4 10.0 4.1 57 3.8 NNW 6 6 3 3 1014.5 1014.7 0.2
18/05:30pm 15.2 12.8 5.1 51 4.8 N 7 9 4 5 1014.1 1014.3 0.2
18/05:00pm 17.2 14.3 4.5 43 6.1 N 9 13 5 7 1014.0 1014.2 0.2
18/04:30pm 18.4 14.7 4.6 40 6.7 N 13 20 7 11 1013.9 1014.1 0.2
18/04:00pm 18.7 13.4 2.9 35 7.4 N 20 28 11 15 1013.9 1014.1 0.2
18/03:30pm 19.0 13.4 3.6 36 7.4 N 22 30 12 16 1014.2 1014.4 0.2
18/03:00pm 19.1 14.0 3.3 35 7.5 N 19 26 10 14 1014.5 1014.7 0.2
18/02:30pm 18.8 13.6 2.2 33 7.7 N 19 28 10 15 1014.7 1014.9 0.2
18/02:00pm 18.4 13.0 1.4 32 7.7 N 19 26 10 14 1015.0 1015.2 0.2
18/01:30pm 18.2 12.8 1.3 32 7.7 N 19 28 10 15 1015.3 1015.5 0.2
18/01:00pm 18.1 12.6 2.0 34 7.4 N 20 28 11 15 1015.9 1016.0 0.2
18/12:30pm 17.5 11.8 2.7 37 6.9 N 22 32 12 17 1016.4 1016.6 0.2
18/12:00pm 16.6 11.3 3.0 40 6.3 N 20 32 11 17 1017.2 1017.4 0.2
18/11:30am 16.0 9.8 2.4 40 6.2 N 24 32 13 17 1017.7 1017.9 0.0
18/11:00am 15.2 9.0 2.1 41 5.9 N 24 30 13 16 1018.4 1018.6 0.0
18/10:30am 14.6 8.5 2.5 44 5.5 N 24 32 13 17 1018.7 1019.0 0.0
18/10:00am 12.6 6.4 1.9 48 4.7 N 24 32 13 17 1019.1 1019.3 0.0
18/09:30am 11.3 6.0 2.9 56 3.7 N 20 26 11 14 1019.3 1019.5 0.0
18/09:00am 9.8 5.8 3.1 63 2.9 N 13 22 7 12 1019.3 1019.5 0.0
18/08:30am 7.3 5.1 5.1 86 1.0 NNE 6 9 3 5 1019.3 1019.5 0.0
18/08:00am 4.7 3.3 3.4 91 0.5 CALM 0 4 0 2 1019.3 1019.5 0.0
18/07:30am 1.9 -0.8 0.6 91 0.5 E 4 4 2 2 1019.1 1019.3 0.0
18/07:00am 0.1 -2.1 -1.2 91 0.5 CALM 0 0 0 0 1018.7 1019.0 0.0
18/06:30am -0.5 -2.7 -1.9 90 0.5 CALM 0 2 0 1 1018.7 1019.0 0.0
18/06:00am -0.3 -2.5 -1.7 90 0.5 CALM 0 2 0 1 1018.5 1018.7 0.0
18/05:30am -0.1 -2.3 -1.7 89 0.6 CALM 0 0 0 0 1018.4 1018.6 0.0
18/05:00am 1.2 -0.8 -0.4 89 0.6 CALM 0 0 0 0 1018.3 1018.5 0.0
18/04:30am 0.7 -1.4 -1.1 88 0.6 CALM 0 0 0 0 1018.4 1018.6 0.0
18/04:00am 1.1 -1.0 -0.8 87 0.7 CALM 0 4 0 2 1018.5 1018.7 0.0
18/03:30am 1.1 -1.0 -1.0 86 0.8 CALM 0 0 0 0 1018.5 1018.7 0.0
18/03:00am 1.4 -0.7 -1.0 84 0.9 CALM 0 0 0 0 1018.7 1019.0 0.0
18/02:30am 3.7 1.9 1.4 85 0.9 CALM 0 0 0 0 1018.7 1019.0 0.0
18/02:00am 4.5 2.9 2.2 85 0.9 CALM 0 0 0 0 1018.5 1018.7 0.0
18/01:30am 4.0 2.2 1.5 84 1.0 CALM 0 4 0 2 1018.8 1019.1 0.0
18/01:00am 4.7 3.0 2.1 83 1.1 CALM 0 2 0 1 1019.0 1019.2 0.0
18/12:30am 4.3 1.4 1.3 81 1.2 N 6 7 3 4 1019.0 1019.2 0.0
18/12:00am 5.8 2.1 2.6 80 1.3 N 11 13 6 7 1019.1 1019.3 0.0
 
Date/Time
WST
Temp
°C
App
Temp
°C
Dew
Point
°C
Rel
Hum
%
Delta-T
°C
Wind Press
QNH
hPa
Press
MSL
hPa
Rain since
9am
mm
Dir  Spd
km/h
Gust
km/h
Spd
kts
Gust
kts
17/11:30pm 6.7 2.8 3.5 80 1.4 N 13 19 7 10 1019.0 1019.2 0.0
17/11:00pm 6.3 2.7 3.1 80 1.4 N 11 15 6 8 1019.1 1019.3 0.0
17/10:30pm 5.9 2.3 2.9 81 1.3 N 11 13 6 7 1019.1 1019.3 0.0
17/10:00pm 6.2 2.7 3.5 83 1.2 N 11 13 6 7 1019.2 1019.4 0.0
17/09:30pm 4.5 1.6 1.4 80 1.2 NNW 6 7 3 4 1019.3 1019.5 0.0
17/09:00pm 6.8 3.3 3.6 80 1.4 N 11 13 6 7 1019.3 1019.5 0.0
17/08:30pm 7.3 4.2 3.7 78 1.6 N 9 13 5 7 1019.1 1019.3 0.0
17/08:00pm 7.5 4.5 3.9 78 1.6 N 9 13 5 7 1019.1 1019.3 0.0
17/07:30pm 7.3 4.6 3.9 79 1.5 N 7 9 4 5 1019.1 1019.3 0.0
17/07:00pm 7.8 5.2 4.0 77 1.7 N 7 9 4 5 1019.1 1019.3 0.0
17/06:30pm 9.2 6.3 4.4 72 2.2 N 9 11 5 6 1018.8 1019.1 0.0
17/06:00pm 10.8 7.6 5.1 68 2.6 N 11 17 6 9 1018.6 1018.9 0.0
17/05:30pm 11.2 8.0 5.3 67 2.8 N 11 17 6 9 1018.5 1018.7 0.0
17/05:00pm 11.5 8.4 5.4 66 2.9 NNW 11 15 6 8 1018.4 1018.6 0.0
17/04:30pm 11.5 7.1 4.9 64 3.1 NNW 17 22 9 12 1018.3 1018.5 0.0
17/04:00pm 11.7 7.0 5.3 65 3.0 NW 19 24 10 13 1018.4 1018.6 0.0
17/03:30pm 11.1 6.9 5.6 69 2.6 NW 17 26 9 14 1018.6 1018.9 0.0
17/03:00pm 11.8 7.1 5.0 63 3.2 NW 19 24 10 13 1018.7 1019.0 0.0
17/02:30pm 11.9 7.1 4.6 61 3.4 WNW 19 24 10 13 1018.7 1019.0 0.0
17/02:00pm 12.0 7.6 4.7 61 3.4 NW 17 22 9 12 1018.7 1019.0 0.0
17/01:30pm 11.9 7.4 4.4 60 3.5 NW 17 24 9 13 1019.0 1019.2 0.0
17/01:00pm 13.0 8.2 4.9 58 3.8 NW 19 28 10 15 1019.1 1019.3 0.0
17/12:30pm 12.1 8.5 4.8 61 3.4 NW 13 26 7 14 1019.4 1019.6 0.0
17/12:00pm 11.3 7.3 5.0 65 2.9 WNW 15 19 8 10 1019.8 1020.0 0.0
17/11:30am 11.3 6.9 4.5 63 3.1 WNW 17 24 9 13 1020.3 1020.5 0.0
17/11:00am 11.4 6.8 3.7 59 3.5 W 17 32 9 17 1020.5 1020.7 0.0
17/10:30am 11.4 6.8 3.7 59 3.5 WNW 17 24 9 13 1020.4 1020.6 0.0
17/10:00am 10.8 6.8 4.7 66 2.8 WNW 15 22 8 12 1020.6 1020.8 0.0
17/09:30am 9.7 5.3 4.9 72 2.2 NW 17 20 9 11 1020.6 1020.8 0.0
17/09:00am 8.6 4.5 4.6 76 1.8 NW 15 19 8 10 1020.5 1020.7 0.0
17/08:30am 6.9 3.1 3.9 81 1.3 NW 13 17 7 9 1020.2 1020.4 0.0
17/08:00am 5.6 2.4 3.3 85 1.0 NW 9 13 5 7 1019.9 1020.1 0.0
17/07:30am 3.5 0.5 1.7 88 0.7 WNW 7 9 4 5 1019.5 1019.7 0.0
17/07:00am 2.5 -0.5 0.7 88 0.7 WNW 6 9 3 5 1019.4 1019.6 0.0
17/06:30am 2.6 -0.6 0.7 87 0.7 WNW 7 9 4 5 1019.0 1019.2 0.0
17/06:00am 2.7 -0.5 0.8 87 0.7 WNW 7 11 4 6 1018.7 1019.0 0.0
17/05:30am 2.8 -0.4 0.9 87 0.7 WNW 7 9 4 5 1018.4 1018.6 0.0
17/05:00am 2.9 -0.3 1.0 87 0.7 WNW 7 13 4 7 1018.3 1018.5 0.0
17/04:30am 2.8 -0.4 0.7 86 0.8 WNW 7 11 4 6 1018.0 1018.2 0.0
17/04:00am 3.1 0.0 1.2 87 0.7 WNW 7 13 4 7 1018.0 1018.2 0.0
17/03:30am 3.1 -0.4 1.0 86 0.8 WNW 9 11 5 6 1017.9 1018.1 0.0
17/03:00am 3.1 -0.1 0.8 85 0.9 WNW 7 13 4 7 1017.9 1018.1 0.0
17/02:30am 3.5 0.0 1.4 86 0.8 WNW 9 13 5 7 1018.0 1018.2 0.0
17/02:00am 3.1 -0.1 0.7 84 0.9 WNW 7 11 4 6 1018.1 1018.3 0.0
17/01:30am 3.8 -0.1 1.4 84 1.0 WNW 11 15 6 8 1017.9 1018.1 0.0
17/01:00am 3.7 0.2 1.1 83 1.0 W 9 13 5 7 1017.9 1018.1 0.0
17/12:30am 3.7 0.5 0.8 81 1.1 WNW 7 9 4 5 1018.0 1018.2 0.0
17/12:00am 4.3 0.8 1.2 80 1.2 W 9 11 5 6 1017.9 1018.1 0.0
 
Date/Time
WST
Temp
°C
App
Temp
°C
Dew
Point
°C
Rel
Hum
%
Delta-T
°C
Wind Press
QNH
hPa
Press
MSL
hPa
Rain since
9am
mm
Dir  Spd
km/h
Gust
km/h
Spd
kts
Gust
kts
16/11:30pm 5.0 1.5 1.3 77 1.5 W 9 15 5 8 1018.0 1018.2 0.0
16/11:00pm 5.3 1.1 1.4 76 1.6 W 13 19 7 10 1018.2 1018.4 0.0
16/10:30pm 5.3 1.4 1.4 76 1.6 W 11 17 6 9 1018.4 1018.6 0.0
16/10:00pm 5.5 1.6 1.2 74 1.7 W 11 19 6 10 1018.5 1018.7 0.0
16/09:30pm 5.3 1.4 1.1 74 1.7 W 11 15 6 8 1018.5 1018.7 0.0

Other Formats:

Comma delimited format used in spreadsheet applications
http://www.bom.gov.au/fwo/IDW60801/IDW60801.94628.axf

JavaScript Object Notation format (JSON) in row-major order
http://www.bom.gov.au/fwo/IDW60801/IDW60801.94628.json